Terminal Aerodrome Forecast
Issued by NWS Jackson, MS

Home | Current Version | Previous Version | Text Only | Print | Product List | Glossary On
Versions: 1 2 3 4 5 6 7 8 9 10 11 12
230
FTUS44 KJAN 251723
TAFGLH
TAF
KGLH 251723Z 2518/2618 21016G27KT P6SM SCT050 OVC250
     FM260100 23006KT P6SM FEW250
     FM260900 21004KT 5SM BR FEW250
     FM261400 20003KT P6SM FEW250=

USA.gov is the U.S. government's official web portal to all federal, state and local government web resources and services.